Flight Track Log - Related Links

Times and Time Zones

All times are in EDT time to prevent confusion due to time zone crossing. See the AAY800 flight status page for this flight to view local times or setup timezone preferences in your user account.

Time Position Orientation Groundspeed Altitude Reporting Facility
EDT Latitude Longitude Course Direction KTS km/h meters Rate Location/Type
Sat 09:47:38 27.9000 -82.6833 180° South 162 299 244  Level Tampa TRACON
Sat 09:48:50 27.8333 -82.6833 180° South 202 373 945 544 Climbing Tampa TRACON
Sat 09:51:03 27.8556 -82.7611 288° West 115 212 2,103 587 Climbing Jacksonville Center
Sat 09:52:03 27.9350 -82.7375 15° North 170 315 2,835 579 Climbing Jacksonville Center
Sat 09:53:03 28.0206 -82.7186 11° North 243 451 3,261 488 Climbing Jacksonville Center
Sat 09:54:03 28.1247 -82.6925 12° North 318 589 3,810 610 Climbing Jacksonville Center
Sat 09:55:03 28.2333 -82.6664 12° North 362 671 4,481 655 Climbing Jacksonville Center
Sat 09:56:03 28.3458 -82.6450 North 393 727 5,121 640 Climbing Jacksonville Center
Sat 09:57:03 28.4647 -82.6400 North 412 763 5,761 579 Climbing Jacksonville Center
Sat 09:58:03 28.5836 -82.6347 North 423 784 6,279 518 Climbing Jacksonville Center
Sat 09:59:03 28.7172 -82.6297 North 428 793 6,797 457 Climbing Jacksonville Center
Sat 10:00:03 28.8425 -82.6247 North 428 793 7,193 488 Climbing Jacksonville Center
Sat 10:01:03 28.9697 -82.6172 North 444 822 7,772 610 Climbing Jacksonville Center
Sat 10:02:03 29.0908 -82.6122 North 444 822 8,412 594 Climbing Jacksonville Center
Sat 10:03:03 29.2097 -82.6094 North 431 798 8,961 351 Climbing Jacksonville Center
Sat 10:04:03 29.3289 -82.6019 North 431 798 9,114 137 Climbing Jacksonville Center
Sat 10:05:03 29.4436 -82.5969 North 419 776 9,235 183 Climbing Jacksonville Center
Sat 10:06:03 29.5625 -82.5917 North 419 776 9,479 274 Climbing Jacksonville Center
Sat 10:07:03 29.6817 -82.5867 North 419 776 9,784 290 Climbing Jacksonville Center
Sat 10:08:03 29.8006 -82.5814 North 419 776 10,058 137 Climbing Jacksonville Center
Sat 10:09:03 29.9153 -82.5739 North 419 776 10,058  Level Jacksonville Center
Sat 10:10:03 30.0322 -82.5736 360° North 419 776 10,058 -15 Level Jacksonville Center
Sat 10:11:03 30.1472 -82.5683 North 419 776 10,028 -15 Descending Jacksonville Center
Sat 10:12:03 30.2639 -82.5631 North 419 776 10,028  Level Jacksonville Center
Sat 10:13:03 30.3831 -82.5603 North 419 776 10,028  Level Jacksonville Center
Sat 10:14:03 30.4978 -82.5550 North 419 776 10,028  Level Jacksonville Center
Sat 10:15:03 30.6128 -82.5619 357° North 419 776 10,028  Level Jacksonville Center
Sat 10:16:03 30.7214 -82.5906 347° North 408 756 10,028  Level Jacksonville Center
Sat 10:17:03 30.8278 -82.6144 349° North 395 732 10,028  Level Jacksonville Center
Sat 10:18:03 30.9322 -82.6408 348° North 389 721 10,028  Level Jacksonville Center
Sat 10:19:03 31.0408 -82.6672 348° North 389 721 10,028 15 Level Jacksonville Center
Sat 10:20:03 31.1392 -82.6864 351° North 394 729 10,058 15 Climbing Jacksonville Center
Sat 10:21:03 31.2497 -82.7103 350° North 394 729 10,058  Level Jacksonville Center
Sat 10:22:03 31.3542 -82.7394 347° North 389 721 10,058  Level Jacksonville Center
Sat 10:23:03 31.4733 -82.7683 348° North 390 723 10,058  Level Jacksonville Center
Sat 10:24:03 31.5797 -82.7903 350° North 390 723 10,058  Level Jacksonville Center
Sat 10:25:46 31.7492 -82.8347 347° North 390 723 10,058  Level Atlanta Center
Sat 10:26:46 31.8558 -82.8603 348° North 390 723 10,058  Level Atlanta Center
Sat 10:27:46 31.9625 -82.8858 349° North 390 723 10,058  Level Atlanta Center
Sat 10:28:46 32.0669 -82.9114 348° North 390 723 10,058  Level Atlanta Center
Sat 10:29:46 32.1717 -82.9397 347° North 390 723 10,058  Level Atlanta Center
Sat 10:30:46 32.2719 -82.9653 348° North 383 710 10,058  Level Atlanta Center
Sat 10:31:46 32.3744 -82.9911 348° North 372 689 10,058 107 Level Atlanta Center
Sat 10:32:46 32.4769 -83.0144 349° North 372 689 10,272 152 Climbing Atlanta Center
Sat 10:33:46 32.5775 -83.0406 348° North 372 689 10,363 46 Climbing Atlanta Center
Sat 10:34:46 32.6758 -83.0642 349° North 372 689 10,363  Level Atlanta Center
Sat 10:35:46 32.7761 -83.0878 349° North 367 679 10,363  Level Atlanta Center
Sat 10:36:46 32.8808 -83.1161 347° North 355 658 10,363  Level Atlanta Center
Sat 10:37:46 32.9747 -83.1400 348° North 365 676 10,363  Level Atlanta Center
Sat 10:38:46 33.0836 -83.1686 348° North 365 676 10,363  Level Atlanta Center
Sat 10:39:46 33.1819 -83.1950 347° North 359 665 10,363  Level Atlanta Center
Sat 10:40:46 33.2800 -83.2164 350° North 359 665 10,363  Level Atlanta Center
Sat 10:41:46 33.3825 -83.2403 349° North 365 676 10,363  Level Atlanta Center
Sat 10:42:46 33.4828 -83.2667 348° North 365 676 10,363  Level Atlanta Center
Sat 10:43:46 33.5833 -83.2933 348° North 365 676 10,363  Level Atlanta Center
Sat 10:44:46 33.6753 -83.3175 348° North 376 697 10,363  Level Atlanta Center
Sat 10:45:46 33.7797 -83.3417 349° North 376 697 10,363  Level Atlanta Center
Sat 10:46:46 33.8842 -83.3683 348° North 376 697 10,363  Level Atlanta Center
Sat 10:47:46 33.9886 -83.3950 348° North 371 687 10,363  Level Atlanta Center
Sat 10:48:46 34.0933 -83.4192 349° North 376 697 10,363  Level Atlanta Center
Sat 10:49:46 34.1978 -83.4461 348° North 376 697 10,363  Level Atlanta Center
Sat 10:50:46 34.3022 -83.4731 348° North 376 697 10,363  Level Atlanta Center
Sat 10:51:46 34.4089 -83.5000 348° North 381 705 10,363  Level Atlanta Center
Sat 10:52:46 34.5175 -83.5294 347° North 387 716 10,363  Level Atlanta Center
Sat 10:53:46 34.6344 -83.5567 349° North 392 726 10,363  Level Atlanta Center
Sat 10:54:46 34.7431 -83.5864 347° North 392 726 10,363  Level Atlanta Center
Sat 10:55:46 34.8517 -83.6136 348° North 392 726 10,363  Level Atlanta Center
Sat 10:56:46 34.9603 -83.6458 346° North 392 726 10,363  Level Atlanta Center
Sat 10:57:46 35.0708 -83.6783 346° North 397 735 10,363  Level Atlanta Center
Sat 10:58:46 35.1836 -83.7058 349° North 397 735 10,363  Level Atlanta Center
Sat 10:59:46 35.2964 -83.7308 350° North 402 745 10,363  Level Atlanta Center
Sat 11:00:46 35.4153 -83.7406 356° North 414 766 10,363  Level Atlanta Center
Sat 11:01:46 35.5344 -83.7453 358° North 419 776 10,363  Level Atlanta Center
Sat 11:02:46 35.6533 -83.7525 357° North 424 785 10,363  Level Atlanta Center
Sat 11:03:46 35.7722 -83.7572 358° North 424 785 10,363  Level Atlanta Center
Sat 11:04:46 35.8889 -83.7644 357° North 424 785 10,363  Level Atlanta Center
Sat 11:05:46 36.0081 -83.7717 357° North 424 785 10,363  Level Atlanta Center
Sat 11:06:46 36.1247 -83.7792 357° North 424 785 10,363  Level Atlanta Center
Sat 11:07:32 36.2161 -83.7819 359° North 425 787 10,363  Level Indianapolis Center
Sat 11:08:33 36.3314 -83.7894 357° North 421 779 10,363  Level Indianapolis Center
Sat 11:09:35 36.4458 -83.7958 357° North 418 774 10,363  Level Indianapolis Center
Sat 11:10:36 36.5567 -83.8033 357° North 414 766 10,363  Level Indianapolis Center
Sat 11:11:38 36.6700 -83.8100 357° North 409 758 10,363  Level Indianapolis Center
Sat 11:12:40 36.7856 -83.8169 357° North 409 758 10,363  Level Indianapolis Center
Sat 11:13:41 36.9253 -83.8247 357° North 419 776 10,363  Level Indianapolis Center
Sat 11:14:43 37.0456 -83.8325 357° North 424 785 10,363  Level Indianapolis Center
Sat 11:15:44 37.1681 -83.8411 357° North 433 801 10,363  Level Indianapolis Center
Sat 11:16:46 37.2892 -83.8500 357° North 433 801 10,363  Level Indianapolis Center
Sat 11:17:47 37.4083 -83.8567 357° North 433 801 10,363  Level Indianapolis Center
Sat 11:18:49 37.5256 -83.8639 357° North 426 789 10,363  Level Indianapolis Center
Sat 11:20:00 37.6499 -83.8623 North  Level Estimated
Sat 11:20:52 37.7597 -83.8731 North 419 776 10,363  Level Indianapolis Center
Sat 11:21:53 37.8778 -83.8653 North 419 776 10,363  Level Indianapolis Center
Sat 11:22:55 38.0167 -83.8578 North 423 784 10,363  Level Indianapolis Center
Sat 11:23:57 38.1375 -83.8511 North 427 790 10,363  Level Indianapolis Center
Sat 11:24:58 38.2606 -83.8433 North 435 806 10,363  Level Indianapolis Center
Sat 11:26:00 38.3833 -83.8356 North 436 808 10,363  Level Indianapolis Center
Sat 11:27:01 38.5058 -83.8289 North 438 811 10,363 -59 Level Indianapolis Center
Sat 11:28:03 38.6289 -83.8222 North 438 811 10,241 -193 Descending Indianapolis Center
Sat 11:29:04 38.7544 -83.8142 North 440 814 9,967 -283 Descending Indianapolis Center
Sat 11:30:06 38.8756 -83.8050 North 439 813 9,662 -280 Descending Indianapolis Center
Sat 11:31:08 38.9983 -83.7969 North 439 813 9,388 -312 Descending Indianapolis Center
Sat 11:32:09 39.1456 -83.7869 North 440 814 9,022 -327 Descending Indianapolis Center
Sat 11:33:11 39.2700 -83.7792 North 441 816 8,717 -312 Descending Indianapolis Center
Sat 11:34:12 39.3894 -83.7717 North 438 811 8,382 -312 Descending Indianapolis Center
Sat 11:35:14 39.5078 -83.7633 North 430 797 8,077 -295 Descending Indianapolis Center
Sat 11:36:16 39.6242 -83.7556 North 423 784 7,772 -297 Descending Indianapolis Center
Sat 11:37:17 39.7386 -83.7492 North 413 764 7,468 -223 Descending Indianapolis Center
Sat 11:38:19 39.8503 -83.7425 North 404 748 7,315 -134 Descending Indianapolis Center
Sat 11:39:20 39.9608 -83.7350 North 397 735 7,193 -134 Descending Indianapolis Center
Sat 11:40:22 40.0714 -83.7272 North 396 734 7,041 -89 Descending Indianapolis Center
Sat 11:41:23 40.1814 -83.7200 North 395 732 7,010 -15 Descending Indianapolis Center
Sat 11:42:25 40.2917 -83.7131 North 395 732 7,010 -164 Level Indianapolis Center
Sat 11:43:26 40.4222 -83.7056 North 395 732 6,675 -372 Descending Indianapolis Center
Sat 11:44:28 40.5322 -83.6986 North 395 732 6,248 -431 Descending Indianapolis Center
Sat 11:45:29 40.6400 -83.6906 North 394 729 5,791 -238 Descending Indianapolis Center
Sat 11:46:31 40.7417 -83.6844 North 373 690 5,761 -104 Descending Indianapolis Center
Sat 11:47:32 40.8411 -83.6794 North 363 673 5,578 -283 Descending Indianapolis Center
Sat 11:48:34 40.9389 -83.6950 353° North 354 655 5,182 -565 Descending Indianapolis Center
Sat 11:49:35 41.0325 -83.7150 351° North 348 644 4,420 -788 Descending Indianapolis Center
Sat 11:50:37 41.1261 -83.7344 351° North 339 628 3,566 -633 Descending Indianapolis Center
Sat 11:51:19 41.1906 -83.7472 352° North 325 602 3,322 -444 Descending Cleveland Center
Sat 11:52:20 41.2658 -83.7583 354° North 279 517 2,804 -550 Descending Cleveland Center
Sat 11:53:22 41.3378 -83.7711 352° North 266 492 2,195 -639 Descending Cleveland Center
Sat 11:54:23 41.4050 -83.7886 349° North 251 465 1,494 -614 Descending Cleveland Center
Sat 11:55:24 41.4875 -83.8106 349° North 251 465 945 -375 Descending Cleveland Center
Sat 11:56:25 41.5444 -83.7828 20° North 251 465 732 -120 Descending Cleveland Center
Sat 11:57:26 41.5683 -83.7156 65° Northeast 228 422 701 -90 Descending Cleveland Center
Sat 11:58:27 41.6053 -83.7436 330° Northwest 199 369 549 -150 Descending Cleveland Center
Sat 12:00:00 41.5833 -83.8000 346° North  Level FlightAware Approximate

Login

Don't have an account? Register now (free) for customized features, flight alerts, and more!